createdAt,value
2018-06-02T00:00:16.725Z,19.80
2018-06-02T00:02:47.143Z,19.80
2018-06-02T00:05:16.552Z,19.70
2018-06-02T00:10:17.069Z,20.00
2018-06-02T00:12:47.120Z,19.90
2018-06-02T00:15:17.999Z,19.90
2018-06-02T00:17:48.053Z,20.10
2018-06-02T00:20:16.988Z,19.90
2018-06-02T00:22:46.311Z,19.90
2018-06-02T00:25:15.249Z,20.00
2018-06-02T00:27:45.316Z,20.10
2018-06-02T00:30:14.253Z,20.00
2018-06-02T00:32:43.182Z,19.90
2018-06-02T00:35:12.250Z,19.90
2018-06-02T00:37:42.301Z,19.90
2018-06-02T00:40:12.718Z,19.80
2018-06-02T00:42:42.420Z,19.70
2018-06-02T00:45:11.350Z,19.80
2018-06-02T00:47:40.258Z,19.70
2018-06-02T00:50:09.203Z,19.70
2018-06-02T00:52:38.901Z,19.60
2018-06-02T00:55:08.605Z,19.70
2018-06-02T00:57:38.664Z,19.60
2018-06-02T01:00:07.588Z,19.60
2018-06-02T01:02:36.514Z,19.60
2018-06-02T01:05:05.824Z,19.50
2018-06-02T01:07:34.755Z,19.40
2018-06-02T01:12:33.762Z,19.60
2018-06-02T01:15:02.677Z,19.50
2018-06-02T01:17:32.373Z,19.50
2018-06-02T01:22:31.368Z,19.50
2018-06-02T01:25:00.307Z,19.60
2018-06-02T01:27:29.633Z,19.60
2018-06-02T01:29:58.535Z,19.60
2018-06-02T01:32:28.302Z,19.50
2018-06-02T01:34:57.625Z,19.50
2018-06-02T01:37:26.565Z,19.60
2018-06-02T01:39:56.253Z,19.60
2018-06-02T01:42:25.594Z,19.60
2018-06-02T01:44:54.535Z,19.60
2018-06-02T01:47:23.487Z,19.70
2018-06-02T01:52:22.467Z,19.40
2018-06-02T01:57:21.477Z,19.40
2018-06-02T02:02:21.137Z,19.30
2018-06-02T02:04:50.073Z,19.20
2018-06-02T02:07:20.511Z,19.20
2018-06-02T02:12:20.924Z,19.30
2018-06-02T02:14:51.364Z,19.20
2018-06-02T02:17:21.533Z,19.20
2018-06-02T02:22:20.525Z,19.20
2018-06-02T02:24:49.441Z,19.20
2018-06-02T02:29:48.442Z,19.20
2018-06-02T02:32:17.437Z,19.20
2018-06-02T02:34:47.826Z,19.20
2018-06-02T02:37:17.529Z,19.20
2018-06-02T02:39:47.959Z,19.20
2018-06-02T02:42:17.764Z,19.20
2018-06-02T02:52:16.880Z,18.90
2018-06-02T02:54:45.783Z,18.90
2018-06-02T02:57:15.853Z,19.00
2018-06-02T02:59:44.772Z,19.00
2018-06-02T03:02:13.740Z,19.10
2018-06-02T03:04:42.661Z,19.10
2018-06-02T03:09:42.429Z,19.00
2018-06-02T03:12:11.353Z,19.10
2018-06-02T03:14:41.054Z,19.10
2018-06-02T03:17:09.963Z,19.10
2018-06-02T03:19:39.480Z,19.10
2018-06-02T03:24:39.223Z,19.00
2018-06-02T03:27:09.651Z,19.00
2018-06-02T03:29:40.093Z,19.10
2018-06-02T03:32:10.031Z,19.00
2018-06-02T03:34:38.998Z,19.10
2018-06-02T03:37:09.427Z,19.10
2018-06-02T03:39:38.759Z,19.10
2018-06-02T03:42:07.676Z,19.20
2018-06-02T03:44:36.632Z,19.10
2018-06-02T03:47:05.589Z,19.10
2018-06-02T03:49:35.646Z,19.00
2018-06-02T03:52:04.567Z,19.10
2018-06-02T03:54:33.528Z,19.10
2018-06-02T03:59:32.502Z,19.00
2018-06-02T04:02:01.421Z,19.00
2018-06-02T04:04:31.139Z,19.00
2018-06-02T04:07:00.804Z,19.10
2018-06-02T04:09:29.752Z,19.10
2018-06-02T04:11:59.803Z,19.10
2018-06-02T04:19:30.005Z,19.20
2018-06-02T04:24:29.756Z,18.80
2018-06-02T04:26:59.816Z,18.90
2018-06-02T04:29:28.792Z,18.90
2018-06-02T04:31:58.858Z,19.00
2018-06-02T04:39:27.994Z,18.80
2018-06-02T04:41:58.044Z,18.80
2018-06-02T04:49:27.892Z,18.70
2018-06-02T04:51:57.966Z,18.70
2018-06-02T04:54:27.661Z,18.60
2018-06-02T04:56:57.853Z,18.40
2018-06-02T05:01:56.842Z,18.40
2018-06-02T05:06:56.640Z,18.60
2018-06-02T05:09:25.578Z,18.70
2018-06-02T05:11:54.492Z,18.70
2018-06-02T05:14:24.612Z,18.80
2018-06-02T05:16:53.530Z,18.80
2018-06-02T05:19:22.469Z,18.70
2018-06-02T05:24:21.437Z,18.80
2018-06-02T05:26:51.503Z,18.80
2018-06-02T05:29:21.209Z,18.70
2018-06-02T05:31:50.153Z,18.70
2018-06-02T05:39:20.315Z,18.70
2018-06-02T05:41:50.375Z,18.60
2018-06-02T05:46:50.504Z,18.50
2018-06-02T05:49:19.827Z,18.40
2018-06-02T05:51:49.530Z,18.50
2018-06-02T05:56:48.509Z,18.40
2018-06-02T05:59:18.036Z,18.40
2018-06-02T06:01:47.394Z,18.40
2018-06-02T06:04:17.452Z,18.50
2018-06-02T06:06:47.536Z,18.50
2018-06-02T06:09:17.590Z,18.50
2018-06-02T06:14:16.994Z,18.70
2018-06-02T06:16:46.700Z,18.80
2018-06-02T06:19:16.380Z,18.70
2018-06-02T06:21:46.083Z,18.80
2018-06-02T06:29:15.908Z,18.80
2018-06-02T06:34:15.201Z,18.50
2018-06-02T06:36:44.903Z,18.60
2018-06-02T06:39:14.969Z,18.50
2018-06-02T06:41:43.885Z,18.40
2018-06-02T06:44:12.801Z,18.30
2018-06-02T06:46:41.746Z,18.50
2018-06-02T06:49:12.176Z,18.40
2018-06-02T06:51:41.874Z,18.20
2018-06-02T06:54:11.559Z,18.00
2018-06-02T06:56:40.523Z,18.00
2018-06-02T06:59:10.385Z,18.20
2018-06-02T07:01:39.317Z,18.10
2018-06-02T07:04:08.246Z,18.10
2018-06-02T07:06:37.569Z,18.20
2018-06-02T07:09:06.893Z,18.20
2018-06-02T07:11:36.956Z,18.00
2018-06-02T07:14:06.643Z,17.90
2018-06-02T07:16:35.643Z,18.10
2018-06-02T07:19:05.710Z,18.20
2018-06-02T07:24:04.707Z,18.50
2018-06-02T07:29:04.027Z,18.70
2018-06-02T07:31:33.711Z,18.70
2018-06-02T07:34:02.645Z,18.80
2018-06-02T07:36:31.584Z,19.20
2018-06-02T07:39:00.515Z,19.20
2018-06-02T07:41:29.831Z,19.20
2018-06-02T07:44:00.273Z,19.20
2018-06-02T07:46:29.219Z,19.30
2018-06-02T07:48:58.545Z,19.30
2018-06-02T07:58:59.188Z,19.30
2018-06-02T08:01:28.904Z,19.10
2018-06-02T08:03:58.229Z,19.10
2018-06-02T08:06:28.321Z,19.10
2018-06-02T08:08:58.388Z,19.20
2018-06-02T08:11:27.736Z,19.10
2018-06-02T08:16:26.748Z,19.20
2018-06-02T08:23:56.977Z,18.90
2018-06-02T08:26:26.305Z,18.90
2018-06-02T08:28:55.651Z,18.90
2018-06-02T08:31:24.550Z,19.00
2018-06-02T08:33:54.641Z,19.20
2018-06-02T08:38:53.688Z,18.90
2018-06-02T08:41:23.362Z,18.70
2018-06-02T08:43:53.442Z,18.60
2018-06-02T08:46:25.127Z,18.60
2018-06-02T08:48:54.838Z,18.60
2018-06-02T08:51:23.739Z,18.80
2018-06-02T08:53:52.672Z,19.00
2018-06-02T08:58:52.469Z,19.30
2018-06-02T09:01:22.549Z,19.20
2018-06-02T09:03:52.246Z,19.00
2018-06-02T09:06:22.677Z,19.20
2018-06-02T09:08:52.005Z,19.20
2018-06-02T09:11:22.438Z,19.20
2018-06-02T09:13:52.510Z,19.30
2018-06-02T09:18:51.501Z,19.30
2018-06-02T09:21:21.273Z,19.10
2018-06-02T09:23:51.712Z,19.00
2018-06-02T09:28:50.719Z,18.90
2018-06-02T09:31:19.648Z,18.90
2018-06-02T09:38:48.697Z,18.60
2018-06-02T09:41:18.022Z,18.50
2018-06-02T09:43:47.754Z,18.60
2018-06-02T09:46:17.080Z,18.60
2018-06-02T09:48:47.153Z,18.70
2018-06-02T09:51:16.080Z,18.80
2018-06-02T09:56:16.591Z,19.10
2018-06-02T09:58:47.017Z,19.10
2018-06-02T10:01:15.957Z,19.10
2018-06-02T10:03:44.880Z,18.90
2018-06-02T10:08:44.275Z,18.90
2018-06-02T10:11:13.346Z,19.10
2018-06-02T10:13:43.418Z,19.10
2018-06-02T10:18:50.352Z,19.10
2018-06-02T10:21:19.393Z,19.20
2018-06-02T10:23:48.311Z,19.20
2018-06-02T10:26:17.275Z,19.30
2018-06-02T10:28:46.578Z,19.30
2018-06-02T10:31:15.504Z,19.20
2018-06-02T10:33:45.588Z,19.20
2018-06-02T10:36:14.528Z,19.20
2018-06-02T10:38:44.587Z,19.30
2018-06-02T10:41:14.911Z,19.30
2018-06-02T10:46:15.386Z,19.50
2018-06-02T10:48:44.294Z,19.50
2018-06-02T11:01:13.487Z,19.40
2018-06-02T11:06:12.425Z,19.60
2018-06-02T11:08:41.441Z,19.60
2018-06-02T11:11:10.777Z,19.70
2018-06-02T11:16:10.525Z,19.70
2018-06-02T11:18:39.437Z,19.50
2018-06-02T11:21:08.372Z,19.50
2018-06-02T11:23:38.425Z,19.60
2018-06-02T11:28:38.169Z,19.90
2018-06-02T11:31:07.108Z,19.80
2018-06-02T11:33:36.419Z,19.70
2018-06-02T11:36:05.366Z,19.70
2018-06-02T11:38:34.377Z,19.80
2018-06-02T11:41:03.368Z,19.90
2018-06-02T11:43:32.317Z,20.00
2018-06-02T11:46:01.242Z,20.00
2018-06-02T11:48:30.153Z,20.00
2018-06-02T11:50:59.480Z,20.00
2018-06-02T11:53:28.388Z,20.10
2018-06-02T11:55:57.320Z,20.30
2018-06-02T11:58:27.003Z,20.40
2018-06-02T12:00:57.498Z,20.30
2018-06-02T12:05:56.412Z,20.40
2018-06-02T12:08:25.362Z,20.50
2018-06-02T12:13:24.336Z,20.70
2018-06-02T12:15:53.662Z,20.70
2018-06-02T12:18:22.569Z,20.90
2018-06-02T12:20:51.509Z,20.90
2018-06-02T12:23:20.427Z,20.90
2018-06-02T12:28:19.478Z,21.20
2018-06-02T12:30:49.507Z,21.30
2018-06-02T12:33:18.425Z,21.50
2018-06-02T12:35:48.101Z,21.60
2018-06-02T12:38:17.147Z,21.50
2018-06-02T12:40:46.672Z,21.40
2018-06-02T12:48:16.193Z,21.40
2018-06-02T12:50:45.499Z,21.50
2018-06-02T12:53:14.872Z,21.20
2018-06-02T12:58:14.126Z,21.20
2018-06-02T13:03:13.105Z,21.20
2018-06-02T13:08:12.216Z,21.30
2018-06-02T13:10:41.120Z,21.20
2018-06-02T13:13:10.816Z,20.90
2018-06-02T13:15:39.739Z,20.80
2018-06-02T13:18:08.636Z,20.90
2018-06-02T13:20:38.321Z,21.00
2018-06-02T13:23:07.236Z,20.90
2018-06-02T13:25:36.149Z,20.70
2018-06-02T13:28:05.073Z,20.80
2018-06-02T13:30:34.378Z,21.00
2018-06-02T13:33:04.471Z,21.00
2018-06-02T13:35:33.380Z,21.00
2018-06-02T13:38:03.083Z,21.00
2018-06-02T13:40:31.987Z,21.10
2018-06-02T13:48:02.359Z,21.10
2018-06-02T13:50:31.975Z,21.10
2018-06-02T13:53:00.915Z,21.30
2018-06-02T13:58:01.023Z,21.20
2018-06-02T14:00:30.695Z,21.10
2018-06-02T14:02:59.644Z,21.10
2018-06-02T14:05:28.557Z,20.90
2018-06-02T14:07:57.871Z,20.80
2018-06-02T14:12:58.013Z,20.80
2018-06-02T14:15:28.454Z,20.60
2018-06-02T14:17:58.509Z,20.60
2018-06-02T14:20:27.439Z,20.60
2018-06-02T14:22:56.353Z,20.40
2018-06-02T14:25:25.276Z,20.20
2018-06-02T14:27:55.694Z,20.20
2018-06-02T14:32:54.670Z,20.20
2018-06-02T14:35:23.593Z,20.30
2018-06-02T14:37:52.498Z,20.30
2018-06-02T14:40:22.202Z,20.20
2018-06-02T14:42:51.136Z,20.30
2018-06-02T14:45:20.847Z,20.50
2018-06-02T14:47:50.510Z,20.60
2018-06-02T14:52:50.355Z,20.50
2018-06-02T14:55:19.666Z,20.60
2018-06-02T14:57:49.336Z,20.70
2018-06-02T15:02:49.068Z,20.50
2018-06-02T15:05:17.992Z,19.70
2018-06-02T15:07:47.784Z,20.40
2018-06-02T15:10:17.460Z,20.40
2018-06-02T15:12:46.383Z,20.40
2018-06-02T15:15:16.064Z,20.50
2018-06-02T15:20:15.518Z,20.50
2018-06-02T15:22:45.222Z,20.60
2018-06-02T15:25:14.900Z,20.60
2018-06-02T15:27:45.322Z,20.60
2018-06-02T15:30:14.345Z,20.40
2018-06-02T15:32:44.396Z,20.30
2018-06-02T15:35:14.105Z,20.30
2018-06-02T15:37:43.018Z,20.20
2018-06-02T15:40:12.668Z,20.20
2018-06-02T15:42:42.376Z,20.20
2018-06-02T15:45:11.706Z,20.20
2018-06-02T15:47:40.621Z,20.20
2018-06-02T15:50:10.349Z,20.20
2018-06-02T15:52:39.262Z,20.10
2018-06-02T15:55:09.334Z,20.20
2018-06-02T15:57:38.254Z,20.20
2018-06-02T16:00:07.180Z,20.00
2018-06-02T16:02:37.671Z,20.20
2018-06-02T16:05:06.966Z,20.20
2018-06-02T16:10:06.740Z,20.10
2018-06-02T16:12:35.673Z,20.10
2018-06-02T16:15:04.610Z,20.20
2018-06-02T16:17:33.559Z,20.30
2018-06-02T16:20:02.489Z,20.20
2018-06-02T16:22:31.406Z,20.10
2018-06-02T16:25:01.123Z,20.10
2018-06-02T16:27:30.480Z,20.10
2018-06-02T16:32:29.508Z,20.20
2018-06-02T16:34:58.448Z,20.10
2018-06-02T16:42:27.530Z,20.00
2018-06-02T16:44:56.904Z,20.10
2018-06-02T16:47:26.866Z,20.20
2018-06-02T16:49:55.788Z,20.10
2018-06-02T16:52:25.138Z,20.00
2018-06-02T16:54:54.474Z,20.10
2018-06-02T16:57:23.406Z,20.10
2018-06-02T16:59:52.332Z,20.20
2018-06-02T17:02:21.278Z,20.30
2018-06-02T17:04:51.338Z,20.30
2018-06-02T17:12:20.430Z,20.20
2018-06-02T17:14:49.374Z,20.20
2018-06-02T17:17:18.696Z,20.30
2018-06-02T17:19:48.059Z,20.30
2018-06-02T17:22:18.092Z,20.30
2018-06-02T17:24:47.422Z,20.40
2018-06-02T17:29:47.459Z,20.40
2018-06-02T17:32:17.162Z,20.30
2018-06-02T17:42:16.330Z,20.60
2018-06-02T17:44:45.281Z,20.60
2018-06-02T17:47:15.357Z,20.50
2018-06-02T17:49:45.104Z,20.50
2018-06-02T17:52:14.434Z,20.40
2018-06-02T17:57:13.470Z,20.70
2018-06-02T17:59:43.553Z,20.50
2018-06-02T18:02:13.624Z,20.60
2018-06-02T18:04:42.584Z,20.60
2018-06-02T18:07:12.294Z,20.70
2018-06-02T18:12:11.298Z,20.70
2018-06-02T18:14:40.218Z,20.70
2018-06-02T18:19:40.352Z,20.50
2018-06-02T18:22:10.065Z,20.40
2018-06-02T18:24:39.016Z,20.50
2018-06-02T18:27:09.526Z,20.40
2018-06-02T18:29:38.452Z,20.40
2018-06-02T18:32:08.585Z,20.40
2018-06-02T18:34:37.527Z,20.30
2018-06-02T18:37:07.281Z,20.30
2018-06-02T18:42:07.009Z,20.40
2018-06-02T18:44:35.949Z,20.30
2018-06-02T18:49:34.958Z,20.20
2018-06-02T18:52:05.076Z,20.00
2018-06-02T18:57:04.471Z,20.10
2018-06-02T19:02:03.909Z,20.20
2018-06-02T19:07:03.405Z,20.10
2018-06-02T19:09:33.140Z,20.10
2018-06-02T19:12:02.852Z,20.20
2018-06-02T19:19:33.104Z,20.30
2018-06-02T19:22:02.806Z,20.30
2018-06-02T19:27:02.551Z,20.30
2018-06-02T19:29:31.886Z,20.20
2018-06-02T19:32:01.954Z,20.20
2018-06-02T19:34:31.671Z,20.20
2018-06-02T19:37:01.432Z,20.30
2018-06-02T19:39:31.136Z,20.30
2018-06-02T19:42:01.202Z,20.20
2018-06-02T19:44:30.910Z,20.10
2018-06-02T19:47:00.724Z,20.20
2018-06-02T19:49:30.430Z,20.20
2018-06-02T19:52:00.495Z,20.10
2018-06-02T19:57:00.678Z,20.10
2018-06-02T19:59:30.748Z,20.10
2018-06-02T20:01:59.692Z,20.10
2018-06-02T20:04:29.766Z,20.10
2018-06-02T20:14:28.940Z,19.90
2018-06-02T20:19:27.944Z,19.80
2018-06-02T20:21:56.898Z,19.90
2018-06-02T20:24:26.542Z,19.90
2018-06-02T20:26:56.635Z,19.90
2018-06-02T20:29:25.578Z,19.90
2018-06-02T20:31:54.535Z,19.90
2018-06-02T20:36:53.981Z,19.90
2018-06-02T20:39:24.503Z,19.90
2018-06-02T20:49:24.125Z,19.60
2018-06-02T20:52:24.580Z,19.60
2018-06-02T20:54:54.288Z,19.60
2018-06-02T20:59:53.256Z,19.50
2018-06-02T21:02:22.979Z,19.60
2018-06-02T21:07:21.991Z,19.70
2018-06-02T21:12:20.892Z,19.60
2018-06-02T21:17:19.898Z,19.70
2018-06-02T21:22:18.814Z,19.60
2018-06-02T21:29:47.140Z,19.70
2018-06-02T21:34:46.090Z,19.60
2018-06-02T21:39:45.032Z,19.70
2018-06-02T21:57:13.521Z,19.60
2018-06-02T22:02:12.391Z,18.80
2018-06-02T22:04:42.237Z,19.50
2018-06-02T22:07:11.896Z,19.50
2018-06-02T22:12:10.829Z,19.50
2018-06-02T22:19:38.958Z,19.50
2018-06-02T22:24:38.714Z,19.50
2018-06-02T22:29:37.602Z,19.50
2018-06-02T22:44:33.440Z,19.60
2018-06-02T22:47:03.106Z,19.60
2018-06-02T22:49:32.804Z,19.50
2018-06-02T23:01:59.572Z,19.40
2018-06-02T23:04:29.304Z,19.50
2018-06-02T23:06:59.072Z,19.50
2018-06-02T23:09:28.759Z,19.50
2018-06-02T23:11:58.480Z,19.50
2018-06-02T23:14:28.164Z,19.50
2018-06-02T23:31:53.115Z,19.40
2018-06-02T23:36:51.941Z,19.50
2018-06-02T23:41:50.999Z,19.50
2018-06-02T23:49:19.126Z,19.50
2018-06-02T23:54:18.111Z,19.40
2018-06-02T23:56:47.769Z,19.40
